createdAt,value
2018-11-25T00:00:09.150Z,64.30
2018-11-25T00:02:37.538Z,62.07
2018-11-25T00:05:06.392Z,63.20
2018-11-25T00:07:35.017Z,63.53
2018-11-25T00:10:03.282Z,66.27
2018-11-25T00:12:31.751Z,64.40
2018-11-25T00:15:00.203Z,63.17
2018-11-25T00:17:29.326Z,66.50
2018-11-25T00:19:57.728Z,64.27
2018-11-25T00:22:26.137Z,66.43
2018-11-25T00:24:54.507Z,63.90
2018-11-25T00:27:22.907Z,60.63
2018-11-25T00:29:51.270Z,56.73
2018-11-25T00:32:19.709Z,58.93
2018-11-25T00:34:48.167Z,60.20
2018-11-25T00:37:16.676Z,59.87
2018-11-25T00:39:45.054Z,56.13
2018-11-25T00:42:13.534Z,61.10
2018-11-25T00:44:41.902Z,58.17
2018-11-25T00:47:10.314Z,59.47
2018-11-25T00:49:38.682Z,56.93
2018-11-25T00:52:07.133Z,59.80
2018-11-25T00:54:35.545Z,62.50
2018-11-25T00:57:04.015Z,61.40
2018-11-25T00:59:32.499Z,53.30
2018-11-25T01:02:00.882Z,58.00
2018-11-25T01:04:29.367Z,57.03
2018-11-25T01:06:57.822Z,58.47
2018-11-25T01:09:26.218Z,59.17
2018-11-25T01:11:54.581Z,59.70
2018-11-25T01:14:22.978Z,59.67
2018-11-25T01:16:51.353Z,62.03
2018-11-25T01:19:19.816Z,56.23
2018-11-25T01:21:48.205Z,63.40
2018-11-25T01:24:16.593Z,58.43
2018-11-25T01:26:45.011Z,59.73
2018-11-25T01:29:13.481Z,56.40
2018-11-25T01:31:41.926Z,55.33
2018-11-25T01:34:10.327Z,57.00
2018-11-25T01:36:38.782Z,59.33
2018-11-25T01:39:07.518Z,56.80
2018-11-25T01:41:35.954Z,55.83
2018-11-25T01:44:04.531Z,56.47
2018-11-25T01:46:33.025Z,58.83
2018-11-25T01:49:01.423Z,52.23
2018-11-25T01:51:29.794Z,57.07
2018-11-25T01:53:58.387Z,56.17
2018-11-25T01:56:26.855Z,56.67
2018-11-25T01:58:55.245Z,57.33
2018-11-25T02:01:23.723Z,59.23
2018-11-25T02:03:52.226Z,57.43
2018-11-25T02:06:20.691Z,57.63
2018-11-25T02:08:49.168Z,52.57
2018-11-25T02:11:17.586Z,56.53
2018-11-25T02:13:45.966Z,56.20
2018-11-25T02:16:14.526Z,56.90
2018-11-25T02:18:42.977Z,57.40
2018-11-25T02:21:11.498Z,56.33
2018-11-25T02:23:39.941Z,58.20
2018-11-25T02:26:08.347Z,58.77
2018-11-25T02:28:36.811Z,54.03
2018-11-25T02:31:05.234Z,54.00
2018-11-25T02:33:33.602Z,58.53
2018-11-25T02:36:02.072Z,56.00
2018-11-25T02:38:30.545Z,59.90
2018-11-25T02:40:58.943Z,58.53
2018-11-25T02:43:27.394Z,57.73
2018-11-25T02:45:55.795Z,57.43
2018-11-25T02:48:24.167Z,55.10
2018-11-25T02:50:52.561Z,60.13
2018-11-25T02:53:21.059Z,59.27
2018-11-25T02:55:49.439Z,57.20
2018-11-25T02:58:17.870Z,58.63
2018-11-25T03:00:46.281Z,59.23
2018-11-25T03:03:14.733Z,60.60
2018-11-25T03:05:43.140Z,58.90
2018-11-25T03:08:11.590Z,56.60
2018-11-25T03:10:40.018Z,56.40
2018-11-25T03:13:08.467Z,59.17
2018-11-25T03:15:36.855Z,58.00
2018-11-25T03:18:05.398Z,55.00
2018-11-25T03:20:33.798Z,56.60
2018-11-25T03:23:02.186Z,57.17
2018-11-25T03:25:30.652Z,57.07
2018-11-25T03:27:59.009Z,57.17
2018-11-25T03:30:27.450Z,61.17
2018-11-25T03:32:55.809Z,55.30
2018-11-25T03:35:24.202Z,58.37
2018-11-25T03:37:52.572Z,56.60
2018-11-25T03:40:20.988Z,55.77
2018-11-25T03:42:49.427Z,55.17
2018-11-25T03:45:20.603Z,57.77
2018-11-25T03:47:49.109Z,58.40
2018-11-25T03:50:17.465Z,60.60
2018-11-25T03:52:45.926Z,56.67
2018-11-25T03:55:15.336Z,59.20
2018-11-25T03:57:43.848Z,58.30
2018-11-25T04:00:17.303Z,58.37
2018-11-25T04:02:45.723Z,60.00
2018-11-25T04:05:15.338Z,61.90
2018-11-25T04:07:43.797Z,60.90
2018-11-25T04:10:13.254Z,59.27
2018-11-25T04:12:41.700Z,58.27
2018-11-25T04:15:12.068Z,59.23
2018-11-25T04:17:40.507Z,60.70
2018-11-25T04:20:11.199Z,60.00
2018-11-25T04:22:39.624Z,57.87
2018-11-25T04:25:09.097Z,63.17
2018-11-25T04:27:37.672Z,59.40
2018-11-25T04:30:08.486Z,60.77
2018-11-25T04:32:36.922Z,64.17
2018-11-25T04:35:05.687Z,62.40
2018-11-25T04:37:34.092Z,60.90
2018-11-25T04:40:02.459Z,66.90
2018-11-25T04:42:30.855Z,63.17
2018-11-25T04:44:59.314Z,65.50
2018-11-25T04:47:27.710Z,63.60
2018-11-25T04:49:56.164Z,67.70
2018-11-25T04:52:24.564Z,63.97
2018-11-25T04:54:53.014Z,64.03
2018-11-25T04:57:21.435Z,62.80
2018-11-25T04:59:49.812Z,64.83
2018-11-25T05:02:18.281Z,66.10
2018-11-25T05:04:46.661Z,68.10
2018-11-25T05:07:15.059Z,62.80
2018-11-25T05:09:43.426Z,65.70
2018-11-25T05:12:11.838Z,64.63
2018-11-25T05:14:40.226Z,61.67
2018-11-25T05:17:08.627Z,66.03
2018-11-25T05:19:37.029Z,66.00
2018-11-25T05:22:05.641Z,69.77
2018-11-25T05:24:34.091Z,69.67
2018-11-25T05:27:02.472Z,67.10
2018-11-25T05:29:30.962Z,66.97
2018-11-25T05:31:59.436Z,68.73
2018-11-25T05:34:27.825Z,68.73
2018-11-25T05:36:56.288Z,68.03
2018-11-25T05:39:24.694Z,67.93
2018-11-25T05:41:53.150Z,68.20
2018-11-25T05:44:21.555Z,70.97
2018-11-25T05:46:49.928Z,70.57
2018-11-25T05:49:18.413Z,69.10
2018-11-25T05:51:46.884Z,67.23
2018-11-25T05:54:15.384Z,70.03
2018-11-25T05:56:43.856Z,70.97
2018-11-25T05:59:12.342Z,69.60
2018-11-25T06:01:40.806Z,72.73
2018-11-25T06:04:09.215Z,73.57
2018-11-25T06:06:37.586Z,75.97
2018-11-25T06:09:08.233Z,72.43
2018-11-25T06:11:36.863Z,77.87
2018-11-25T06:14:05.275Z,73.77
2018-11-25T06:16:33.756Z,70.37
2018-11-25T06:19:02.247Z,72.30
2018-11-25T06:21:30.711Z,76.93
2018-11-25T06:23:59.102Z,69.40
2018-11-25T06:26:27.467Z,74.50
2018-11-25T06:28:55.876Z,71.20
2018-11-25T06:31:24.331Z,70.17
2018-11-25T06:33:52.766Z,71.50
2018-11-25T06:36:21.205Z,73.67
2018-11-25T06:38:49.596Z,68.77
2018-11-25T06:41:17.960Z,69.70
2018-11-25T06:43:46.332Z,76.67
2018-11-25T06:46:14.737Z,72.90
2018-11-25T06:48:43.199Z,68.30
2018-11-25T06:51:11.602Z,74.07
2018-11-25T06:53:40.055Z,71.53
2018-11-25T06:56:08.459Z,74.20
2018-11-25T06:58:36.847Z,77.60
2018-11-25T07:01:05.251Z,74.67
2018-11-25T07:03:33.684Z,77.50
2018-11-25T07:06:02.092Z,74.13
2018-11-25T07:08:30.543Z,78.17
2018-11-25T07:10:58.940Z,71.13
2018-11-25T07:13:27.404Z,70.53
2018-11-25T07:15:55.807Z,73.03
2018-11-25T07:18:24.268Z,69.30
2018-11-25T07:20:52.698Z,71.53
2018-11-25T07:23:21.066Z,72.13
2018-11-25T07:25:49.520Z,75.93
2018-11-25T07:28:18.829Z,75.80
2018-11-25T07:30:46.491Z,79.17
2018-11-25T07:33:14.955Z,74.40
2018-11-25T07:35:43.350Z,79.73
2018-11-25T07:38:11.802Z,76.60
2018-11-25T07:40:40.211Z,75.93
2018-11-25T07:43:08.666Z,78.53
2018-11-25T07:45:37.078Z,73.97
2018-11-25T07:48:05.738Z,70.77
2018-11-25T07:50:34.140Z,76.07
2018-11-25T07:53:02.515Z,73.77
2018-11-25T07:55:30.993Z,78.87
2018-11-25T07:57:59.355Z,77.10
2018-11-25T08:00:27.870Z,75.77
2018-11-25T08:02:56.234Z,79.10
2018-11-25T08:05:25.779Z,78.00
2018-11-25T08:07:54.137Z,74.37
2018-11-25T08:10:22.595Z,78.83
2018-11-25T08:12:51.020Z,77.40
2018-11-25T08:15:20.118Z,76.87
2018-11-25T08:17:48.517Z,77.47
2018-11-25T08:20:19.596Z,71.57
2018-11-25T08:22:48.203Z,66.60
2018-11-25T08:25:17.569Z,74.80
2018-11-25T08:27:45.986Z,80.50
2018-11-25T08:30:16.119Z,72.03
2018-11-25T08:32:44.581Z,75.93
2018-11-25T08:35:13.775Z,79.17
2018-11-25T08:37:42.268Z,76.00
2018-11-25T08:40:13.499Z,81.63
2018-11-25T08:42:41.990Z,76.63
2018-11-25T08:45:12.197Z,83.37
2018-11-25T08:47:40.601Z,78.60
2018-11-25T08:50:14.634Z,76.37
2018-11-25T08:52:43.914Z,77.87
2018-11-25T08:55:17.131Z,79.67
2018-11-25T08:57:45.599Z,86.50
2018-11-25T09:00:21.857Z,87.93
2018-11-25T09:02:51.244Z,82.53
2018-11-25T09:05:19.933Z,81.67
2018-11-25T09:07:48.442Z,81.70
2018-11-25T09:10:17.818Z,89.37
2018-11-25T09:12:55.141Z,88.47
2018-11-25T09:15:18.023Z,84.20
2018-11-25T09:17:46.456Z,84.03
2018-11-25T09:20:15.938Z,79.20
2018-11-25T09:22:44.444Z,82.47
2018-11-25T09:25:17.820Z,81.03
2018-11-25T09:27:46.222Z,78.60
2018-11-25T09:30:18.553Z,76.33
2018-11-25T09:32:46.982Z,74.90
2018-11-25T09:35:15.537Z,74.53
2018-11-25T09:37:43.933Z,72.77
2018-11-25T09:40:16.411Z,68.73
2018-11-25T09:42:44.875Z,67.10
2018-11-25T09:45:17.238Z,74.57
2018-11-25T09:47:45.716Z,70.87
2018-11-25T09:50:19.862Z,70.57
2018-11-25T09:52:48.331Z,71.40
2018-11-25T09:55:17.844Z,66.30
2018-11-25T09:57:49.388Z,67.43
2018-11-25T10:00:21.750Z,60.63
2018-11-25T10:02:50.126Z,63.97
2018-11-25T10:05:18.561Z,66.67
2018-11-25T10:07:46.924Z,65.17
2018-11-25T10:10:16.406Z,66.77
2018-11-25T10:12:44.770Z,68.50
2018-11-25T10:15:16.354Z,66.67
2018-11-25T10:17:44.815Z,62.73
2018-11-25T10:20:14.552Z,61.77
2018-11-25T10:22:43.016Z,62.17
2018-11-25T10:25:12.535Z,60.87
2018-11-25T10:27:40.995Z,49.90
2018-11-25T10:30:18.911Z,59.10
2018-11-25T10:32:48.507Z,56.80
2018-11-25T10:35:16.897Z,54.90
2018-11-25T10:37:45.266Z,57.50
2018-11-25T10:40:15.714Z,57.50
2018-11-25T10:42:44.190Z,52.90
2018-11-25T10:45:13.798Z,55.87
2018-11-25T10:47:42.291Z,53.60
2018-11-25T10:50:14.661Z,52.00
2018-11-25T10:52:43.087Z,53.27
2018-11-25T10:55:12.638Z,54.43
2018-11-25T10:57:41.718Z,53.73
2018-11-25T11:00:16.938Z,48.60
2018-11-25T11:02:45.700Z,50.97
2018-11-25T11:05:19.455Z,53.97
2018-11-25T11:07:47.834Z,51.23
2018-11-25T11:10:16.238Z,48.80
2018-11-25T11:12:44.694Z,51.23
2018-11-25T11:15:13.205Z,45.10
2018-11-25T11:17:41.601Z,48.57
2018-11-25T11:20:10.744Z,43.97
2018-11-25T11:22:39.144Z,47.47
2018-11-25T11:25:08.648Z,50.13
2018-11-25T11:27:37.050Z,47.30
2018-11-25T11:30:08.709Z,49.63
2018-11-25T11:32:37.290Z,48.40
2018-11-25T11:35:07.278Z,47.60
2018-11-25T11:37:36.190Z,46.00
2018-11-25T11:40:06.695Z,46.47
2018-11-25T11:42:35.094Z,48.63
2018-11-25T11:45:03.605Z,47.80
2018-11-25T11:47:32.289Z,49.60
2018-11-25T11:50:00.674Z,48.90
2018-11-25T11:52:29.083Z,48.90
2018-11-25T11:54:57.510Z,46.13
2018-11-25T11:57:26.000Z,46.77
2018-11-25T11:59:54.456Z,46.83
2018-11-25T12:02:22.858Z,47.43
2018-11-25T12:04:51.328Z,45.57
2018-11-25T12:07:19.828Z,44.70
2018-11-25T12:09:48.209Z,49.07
2018-11-25T12:12:16.687Z,45.70
2018-11-25T12:14:45.151Z,49.77
2018-11-25T12:17:13.646Z,45.63
2018-11-25T12:19:42.040Z,47.90
2018-11-25T12:22:10.460Z,47.77
2018-11-25T12:24:38.827Z,46.40
2018-11-25T12:27:07.223Z,42.47
2018-11-25T12:29:35.581Z,45.10
2018-11-25T12:32:04.030Z,39.20
2018-11-25T12:34:32.521Z,38.60
2018-11-25T12:37:01.008Z,42.37
2018-11-25T12:39:29.456Z,38.23
2018-11-25T12:41:57.829Z,40.87
2018-11-25T12:44:29.336Z,39.03
2018-11-25T12:46:54.623Z,40.27
2018-11-25T12:49:23.087Z,38.30
2018-11-25T12:51:51.460Z,38.63
2018-11-25T12:54:19.854Z,42.87
2018-11-25T12:56:51.880Z,40.63
2018-11-25T12:59:16.752Z,40.77
2018-11-25T13:01:45.184Z,42.07
2018-11-25T13:04:13.742Z,41.40
2018-11-25T13:06:42.104Z,40.67
2018-11-25T13:09:10.494Z,41.07
2018-11-25T13:11:38.908Z,41.37
2018-11-25T13:14:07.313Z,42.57
2018-11-25T13:16:35.758Z,42.77
2018-11-25T13:19:04.176Z,42.30
2018-11-25T13:21:32.722Z,42.80
2018-11-25T13:24:01.127Z,40.90
2018-11-25T13:26:29.506Z,42.70
2018-11-25T13:28:58.000Z,40.20
2018-11-25T13:31:26.366Z,39.20
2018-11-25T13:33:54.759Z,41.30
2018-11-25T13:36:23.210Z,41.13
2018-11-25T13:38:51.624Z,41.00
2018-11-25T13:41:20.005Z,41.13
2018-11-25T13:43:48.483Z,38.13
2018-11-25T13:46:16.854Z,40.17
2018-11-25T13:48:45.269Z,37.67
2018-11-25T13:51:13.816Z,37.83
2018-11-25T13:53:42.337Z,39.23
2018-11-25T13:56:10.752Z,38.60
2018-11-25T13:58:39.150Z,37.67
2018-11-25T14:01:07.614Z,39.47
2018-11-25T14:03:38.982Z,38.10
2018-11-25T14:06:10.432Z,38.00
2018-11-25T14:08:39.026Z,36.98
2018-11-25T14:11:09.027Z,35.53
2018-11-25T14:13:37.437Z,35.10
2018-11-25T14:16:07.938Z,36.73
2018-11-25T14:18:36.340Z,38.00
2018-11-25T14:21:04.750Z,36.47
2018-11-25T14:23:33.115Z,40.50
2018-11-25T14:26:06.092Z,38.40
2018-11-25T14:28:34.561Z,39.60
2018-11-25T14:31:02.951Z,38.90
2018-11-25T14:33:31.407Z,41.37
2018-11-25T14:35:59.812Z,40.17
2018-11-25T14:38:28.258Z,40.73
2018-11-25T14:40:56.638Z,40.60
2018-11-25T14:43:24.998Z,38.43
2018-11-25T14:45:54.179Z,42.20
2018-11-25T14:48:22.607Z,39.80
2018-11-25T14:50:51.009Z,39.00
2018-11-25T14:53:19.476Z,39.30
2018-11-25T14:55:47.935Z,40.20
2018-11-25T14:58:16.332Z,38.17
2018-11-25T15:00:44.740Z,36.90
2018-11-25T15:03:13.106Z,40.93
2018-11-25T15:05:43.230Z,39.13
2018-11-25T15:08:14.202Z,40.77
2018-11-25T15:10:42.656Z,42.17
2018-11-25T15:13:11.125Z,39.23
2018-11-25T15:15:39.741Z,36.30
2018-11-25T15:18:08.889Z,36.90
2018-11-25T15:20:37.307Z,37.53
2018-11-25T15:23:14.823Z,36.23
2018-11-25T15:25:44.913Z,35.20
2018-11-25T15:28:13.280Z,38.27
2018-11-25T15:30:41.696Z,39.57
2018-11-25T15:33:10.137Z,35.83
2018-11-25T15:35:38.527Z,36.23
2018-11-25T15:38:07.324Z,38.80
2018-11-25T15:40:36.502Z,37.73
2018-11-25T15:43:05.197Z,38.67
2018-11-25T15:45:33.577Z,35.27
2018-11-25T15:48:13.285Z,37.13
2018-11-25T15:50:41.736Z,36.63
2018-11-25T15:53:11.124Z,38.33
2018-11-25T15:55:39.962Z,36.27
2018-11-25T15:58:08.637Z,33.60
2018-11-25T16:00:37.005Z,33.50
2018-11-25T16:03:07.720Z,34.50
2018-11-25T16:05:36.370Z,35.93
2018-11-25T16:08:04.787Z,39.33
2018-11-25T16:10:33.241Z,37.90
2018-11-25T16:13:01.626Z,37.03
2018-11-25T16:15:30.000Z,36.30
2018-11-25T16:17:58.391Z,35.90
2018-11-25T16:20:27.789Z,38.80
2018-11-25T16:22:58.736Z,36.28
2018-11-25T16:25:33.660Z,39.40
2018-11-25T16:28:09.551Z,38.00
2018-11-25T16:30:37.973Z,32.87
2018-11-25T16:33:06.489Z,39.77
2018-11-25T16:35:34.994Z,52.47
2018-11-25T16:38:03.386Z,39.50
2018-11-25T16:40:31.821Z,35.03
2018-11-25T16:43:00.311Z,32.70
2018-11-25T16:45:28.778Z,34.87
2018-11-25T16:47:57.199Z,32.67
2018-11-25T16:50:25.637Z,36.00
2018-11-25T16:52:54.042Z,35.90
2018-11-25T16:55:22.503Z,32.80
2018-11-25T16:57:50.915Z,34.40
2018-11-25T17:00:20.189Z,33.67
2018-11-25T17:02:48.706Z,34.90
2018-11-25T17:05:18.579Z,33.90
2018-11-25T17:07:48.598Z,33.00
2018-11-25T17:10:16.975Z,36.37
2018-11-25T17:12:45.381Z,34.30
2018-11-25T17:15:17.524Z,38.15
2018-11-25T17:17:45.930Z,34.00
2018-11-25T17:20:14.407Z,35.90
2018-11-25T17:22:42.862Z,37.07
2018-11-25T17:25:12.331Z,34.70
2018-11-25T17:27:40.755Z,34.80
2018-11-25T17:30:12.044Z,34.00
2018-11-25T17:32:40.492Z,36.57
2018-11-25T17:35:14.530Z,44.23
2018-11-25T17:37:42.944Z,40.37
2018-11-25T17:40:11.382Z,43.70
2018-11-25T17:42:40.050Z,37.10
2018-11-25T17:45:10.898Z,37.90
2018-11-25T17:47:39.364Z,37.10
2018-11-25T17:50:18.825Z,39.37
2018-11-25T17:52:47.693Z,37.53
2018-11-25T17:55:16.744Z,40.37
2018-11-25T17:57:45.128Z,38.70
2018-11-25T18:00:21.268Z,40.27
2018-11-25T18:02:49.658Z,37.03
2018-11-25T18:05:18.106Z,34.70
2018-11-25T18:07:46.580Z,38.33
2018-11-25T18:10:14.978Z,35.07
2018-11-25T18:12:43.434Z,37.20
2018-11-25T18:15:17.256Z,34.40
2018-11-25T18:17:53.082Z,38.27
2018-11-25T18:20:21.817Z,34.53
2018-11-25T18:22:50.617Z,35.10
2018-11-25T18:25:19.078Z,37.20
2018-11-25T18:27:47.529Z,35.63
2018-11-25T18:30:17.146Z,39.27
2018-11-25T18:32:46.023Z,38.07
2018-11-25T18:35:14.468Z,35.97
2018-11-25T18:37:42.901Z,42.00
2018-11-25T18:40:12.513Z,38.60
2018-11-25T18:42:41.360Z,35.57
2018-11-25T18:45:12.110Z,34.70
2018-11-25T18:47:40.636Z,36.10
2018-11-25T18:50:11.669Z,36.90
2018-11-25T18:52:40.166Z,34.47
2018-11-25T18:55:07.483Z,34.30
2018-11-25T18:57:35.908Z,34.43
2018-11-25T19:00:06.599Z,32.20
2018-11-25T19:02:43.276Z,31.10
2018-11-25T19:05:11.666Z,30.80
2018-11-25T19:07:40.075Z,31.20
2018-11-25T19:10:10.587Z,39.63
2018-11-25T19:12:43.976Z,35.13
2018-11-25T19:15:09.496Z,34.57
2018-11-25T19:17:37.883Z,33.33
2018-11-25T19:20:11.026Z,33.93
2018-11-25T19:22:39.455Z,35.13
2018-11-25T19:25:09.146Z,35.20
2018-11-25T19:27:37.538Z,34.80
2018-11-25T19:30:10.427Z,34.07
2018-11-25T19:32:38.852Z,36.10
2018-11-25T19:35:09.302Z,35.33
2018-11-25T19:37:37.713Z,33.40
2018-11-25T19:40:10.296Z,38.30
2018-11-25T19:42:38.706Z,36.43
2018-11-25T19:45:11.215Z,36.70
2018-11-25T19:47:39.629Z,36.63
2018-11-25T19:50:11.386Z,36.10
2018-11-25T19:52:39.890Z,33.97
2018-11-25T19:55:08.743Z,34.30
2018-11-25T19:57:37.168Z,34.10
2018-11-25T20:00:11.667Z,35.07
2018-11-25T20:02:40.488Z,35.87
2018-11-25T20:05:10.799Z,32.17
2018-11-25T20:07:39.241Z,32.03
2018-11-25T20:10:10.018Z,35.10
2018-11-25T20:12:40.063Z,35.93
2018-11-25T20:15:10.483Z,36.10
2018-11-25T20:17:38.923Z,34.10
2018-11-25T20:20:11.522Z,35.40
2018-11-25T20:22:39.921Z,33.50
2018-11-25T20:25:10.310Z,32.03
2018-11-25T20:27:44.107Z,33.10
2018-11-25T20:30:16.424Z,32.60
2018-11-25T20:32:50.232Z,33.83
2018-11-25T20:35:18.696Z,33.70
2018-11-25T20:37:54.155Z,34.67
2018-11-25T20:40:22.642Z,29.47
2018-11-25T20:42:51.150Z,31.73
2018-11-25T20:45:25.959Z,31.50
2018-11-25T20:47:55.249Z,32.30
2018-11-25T20:50:23.647Z,32.57
2018-11-25T20:52:57.466Z,32.93
2018-11-25T20:55:25.904Z,34.30
2018-11-25T20:57:54.363Z,33.03
2018-11-25T21:00:24.834Z,30.57
2018-11-25T21:02:53.272Z,30.00
2018-11-25T21:05:21.708Z,31.37
2018-11-25T21:07:50.161Z,31.03
2018-11-25T21:10:19.675Z,33.30
2018-11-25T21:12:50.255Z,33.73
2018-11-25T21:15:18.681Z,35.03
2018-11-25T21:17:47.173Z,46.90
2018-11-25T21:20:24.651Z,33.37
2018-11-25T21:22:53.026Z,31.73
2018-11-25T21:25:22.726Z,35.90
2018-11-25T21:27:51.099Z,33.90
2018-11-25T21:30:20.852Z,33.50
2018-11-25T21:32:50.501Z,34.03
2018-11-25T21:35:18.860Z,34.33
2018-11-25T21:37:47.300Z,34.20
2018-11-25T21:40:19.566Z,32.50
2018-11-25T21:42:48.073Z,32.20
2018-11-25T21:45:17.404Z,33.77
2018-11-25T21:47:46.115Z,33.50
2018-11-25T21:50:19.500Z,35.43
2018-11-25T21:52:47.915Z,34.67
2018-11-25T21:55:17.365Z,34.17
2018-11-25T21:57:45.812Z,36.67
2018-11-25T22:00:20.255Z,34.80
2018-11-25T22:02:48.730Z,32.83
2018-11-25T22:05:17.230Z,32.13
2018-11-25T22:07:45.711Z,38.50
2018-11-25T22:10:15.941Z,36.90
2018-11-25T22:12:44.949Z,36.73
2018-11-25T22:15:17.041Z,33.80
2018-11-25T22:17:45.437Z,35.43
2018-11-25T22:20:14.767Z,36.27
2018-11-25T22:22:43.230Z,33.13
2018-11-25T22:25:13.535Z,33.10
2018-11-25T22:27:41.949Z,36.30
2018-11-25T22:30:25.284Z,37.13
2018-11-25T22:32:53.677Z,38.13
2018-11-25T22:35:23.161Z,35.13
2018-11-25T22:37:51.623Z,37.40
2018-11-25T22:40:20.444Z,36.30
2018-11-25T22:42:49.770Z,33.70
2018-11-25T22:45:19.230Z,34.73
2018-11-25T22:47:47.706Z,37.20
2018-11-25T22:50:20.111Z,34.03
2018-11-25T22:52:48.891Z,33.60
2018-11-25T22:55:25.360Z,35.93
2018-11-25T22:57:53.753Z,34.63
2018-11-25T23:00:30.783Z,34.43
2018-11-25T23:02:59.195Z,35.17
2018-11-25T23:05:38.949Z,36.17
2018-11-25T23:08:07.412Z,35.13
2018-11-25T23:10:35.868Z,34.20
2018-11-25T23:13:04.267Z,33.70
2018-11-25T23:15:32.757Z,32.83
2018-11-25T23:18:01.124Z,34.10
2018-11-25T23:20:29.511Z,35.83
2018-11-25T23:22:57.892Z,37.07
2018-11-25T23:25:26.375Z,36.57
2018-11-25T23:27:54.852Z,35.27
2018-11-25T23:30:23.239Z,34.60
2018-11-25T23:32:51.699Z,37.80
2018-11-25T23:35:21.621Z,37.33
2018-11-25T23:37:49.995Z,38.20
2018-11-25T23:40:18.400Z,37.17
2018-11-25T23:42:47.364Z,35.27
2018-11-25T23:45:16.530Z,35.53
2018-11-25T23:47:44.896Z,34.17
2018-11-25T23:55:13.184Z,35.30
2018-11-25T23:57:41.786Z,35.17
